createdAt,value
2023-05-05T00:02:41.345Z,77.54
2023-05-05T00:05:47.029Z,78.50
2023-05-05T00:08:48.768Z,98.91
2023-05-05T00:11:51.097Z,90.11
2023-05-05T00:14:52.849Z,79.71
2023-05-05T00:17:55.291Z,87.59
2023-05-05T00:20:58.606Z,89.29
2023-05-05T00:24:01.861Z,89.89
2023-05-05T00:27:03.841Z,92.81
2023-05-05T00:30:07.130Z,89.27
2023-05-05T00:33:12.096Z,86.56
2023-05-05T00:36:16.071Z,88.81
2023-05-05T00:39:20.831Z,95.95
2023-05-05T00:42:26.234Z,95.73
2023-05-05T00:45:29.325Z,99.20
2023-05-05T00:48:32.100Z,99.09
2023-05-05T00:51:35.726Z,98.07
2023-05-05T00:54:38.900Z,100.00
2023-05-05T00:57:43.464Z,96.56
2023-05-05T01:00:46.146Z,100.00
2023-05-05T01:03:48.155Z,100.00
2023-05-05T01:06:59.430Z,100.00
2023-05-05T01:10:19.657Z,100.00
2023-05-05T01:13:32.363Z,100.00
2023-05-05T01:16:36.234Z,100.00
2023-05-05T01:19:58.556Z,100.00
2023-05-05T01:23:05.999Z,100.00
2023-05-05T01:26:27.277Z,100.00
2023-05-05T01:30:03.450Z,100.00
2023-05-05T01:33:14.324Z,100.00
2023-05-05T01:36:23.456Z,100.00
2023-05-05T01:39:30.396Z,100.00
2023-05-05T01:42:33.899Z,100.00
2023-05-05T01:45:39.397Z,100.00
2023-05-05T01:48:44.150Z,100.00
2023-05-05T01:51:47.120Z,100.00
2023-05-05T01:54:52.798Z,100.00
2023-05-05T01:57:57.626Z,100.00
2023-05-05T02:01:01.046Z,100.00
2023-05-05T02:04:06.819Z,100.00
2023-05-05T02:07:10.192Z,100.00
2023-05-05T02:10:14.966Z,100.00
2023-05-05T02:13:20.220Z,100.00
2023-05-05T02:16:24.696Z,100.00
2023-05-05T02:19:31.968Z,100.00
2023-05-05T02:22:35.379Z,100.00
2023-05-05T02:25:40.121Z,100.00
2023-05-05T02:28:48.188Z,100.00
2023-05-05T02:31:53.655Z,100.00
2023-05-05T02:34:59.360Z,100.00
2023-05-05T02:38:03.995Z,100.00
2023-05-05T02:41:13.694Z,100.00
2023-05-05T02:44:17.152Z,100.00
2023-05-05T02:47:20.465Z,100.00
2023-05-05T02:50:24.042Z,100.00
2023-05-05T02:53:27.048Z,100.00
2023-05-05T02:56:39.482Z,100.00
2023-05-05T02:59:50.437Z,100.00
2023-05-05T03:03:07.674Z,100.00
2023-05-05T03:06:16.560Z,100.00
2023-05-05T03:09:25.992Z,100.00
2023-05-05T03:12:30.632Z,100.00
2023-05-05T03:15:40.996Z,100.00
2023-05-05T03:18:45.292Z,100.00
2023-05-05T03:21:49.064Z,100.00
2023-05-05T03:24:51.024Z,100.00
2023-05-05T03:27:53.020Z,100.00
2023-05-05T03:30:55.286Z,100.00
2023-05-05T03:33:57.360Z,100.00
2023-05-05T03:37:01.601Z,100.00
2023-05-05T03:40:03.899Z,100.00
2023-05-05T03:43:08.034Z,100.00
2023-05-05T03:46:09.855Z,100.00
2023-05-05T03:49:11.715Z,100.00
2023-05-05T03:52:15.206Z,100.00
2023-05-05T03:55:17.307Z,100.00
2023-05-05T03:58:21.999Z,100.00
2023-05-05T04:01:24.074Z,100.00
2023-05-05T04:04:26.216Z,100.00
2023-05-05T04:07:31.724Z,100.00
2023-05-05T04:10:33.913Z,100.00
2023-05-05T04:13:35.725Z,100.00
2023-05-05T04:16:37.628Z,100.00
2023-05-05T04:19:40.088Z,100.00
2023-05-05T04:22:43.619Z,100.00
2023-05-05T04:25:45.627Z,100.00
2023-05-05T04:28:48.824Z,100.00
2023-05-05T04:31:53.095Z,100.00
2023-05-05T04:34:56.498Z,100.00
2023-05-05T04:38:00.001Z,100.00
2023-05-05T04:41:05.157Z,100.00
2023-05-05T04:44:07.275Z,100.00
2023-05-05T04:47:09.363Z,100.00
2023-05-05T04:50:11.627Z,100.00
2023-05-05T04:53:14.897Z,100.00
2023-05-05T04:56:16.897Z,100.00
2023-05-05T04:59:18.729Z,100.00
2023-05-05T05:02:20.989Z,100.00
2023-05-05T05:05:25.365Z,100.00
2023-05-05T05:08:29.857Z,100.00
2023-05-05T05:11:32.776Z,100.00
2023-05-05T05:14:37.194Z,100.00
2023-05-05T05:17:39.470Z,100.00
2023-05-05T05:20:41.282Z,100.00
2023-05-05T05:23:44.486Z,100.00
2023-05-05T05:26:46.267Z,100.00
2023-05-05T05:29:48.164Z,100.00
2023-05-05T05:32:50.261Z,100.00
2023-05-05T05:35:52.067Z,100.00
2023-05-05T05:38:55.980Z,100.00
2023-05-05T05:41:58.090Z,100.00
2023-05-05T05:45:00.205Z,100.00
2023-05-05T05:48:02.054Z,100.00
2023-05-05T05:51:04.202Z,100.00
2023-05-05T05:54:07.559Z,100.00
2023-05-05T05:57:12.279Z,100.00
2023-05-05T06:00:17.443Z,100.00
2023-05-05T06:03:21.412Z,100.00
2023-05-05T06:06:24.321Z,100.00
2023-05-05T06:09:29.812Z,100.00
2023-05-05T06:12:31.571Z,100.00
2023-05-05T06:15:37.253Z,100.00
2023-05-05T06:18:39.974Z,100.00
2023-05-05T06:21:41.798Z,100.00
2023-05-05T06:24:45.200Z,100.00
2023-05-05T06:27:47.130Z,100.00
2023-05-05T06:30:48.949Z,100.00
2023-05-05T06:33:51.241Z,100.00
2023-05-05T06:36:53.659Z,100.00
2023-05-05T06:39:57.915Z,100.00
2023-05-05T06:42:59.926Z,100.00
2023-05-05T06:46:01.729Z,100.00
2023-05-05T06:49:03.480Z,100.00
2023-05-05T06:52:05.666Z,100.00
2023-05-05T06:55:10.029Z,100.00
2023-05-05T06:58:12.026Z,100.00
2023-05-05T07:01:13.818Z,100.00
2023-05-05T07:04:17.898Z,100.00
2023-05-05T07:07:19.745Z,100.00
2023-05-05T07:10:24.311Z,100.00
2023-05-05T07:13:26.100Z,100.00
2023-05-05T07:16:28.115Z,100.00
2023-05-05T07:19:32.650Z,100.00
2023-05-05T07:22:34.601Z,100.00
2023-05-05T07:25:38.612Z,100.00
2023-05-05T07:28:40.347Z,100.00
2023-05-05T07:31:42.303Z,100.00
2023-05-05T07:34:44.100Z,100.00
2023-05-05T07:37:45.969Z,100.00
2023-05-05T07:40:49.069Z,100.00
2023-05-05T07:43:50.861Z,100.00
2023-05-05T07:46:52.846Z,100.00
2023-05-05T07:49:54.841Z,100.00
2023-05-05T07:53:06.213Z,100.00
2023-05-05T07:56:19.273Z,100.00
2023-05-05T07:59:21.637Z,100.00
2023-05-05T08:02:24.199Z,100.00
2023-05-05T08:05:25.945Z,100.00
2023-05-05T08:08:27.733Z,100.00
2023-05-05T08:11:30.864Z,100.00
2023-05-05T08:14:34.746Z,100.00
2023-05-05T08:17:50.142Z,100.00
2023-05-05T08:20:54.166Z,100.00
2023-05-05T08:23:58.704Z,100.00
2023-05-05T08:27:02.116Z,100.00
2023-05-05T08:30:05.065Z,100.00
2023-05-05T08:33:09.225Z,100.00
2023-05-05T08:36:11.291Z,100.00
2023-05-05T08:39:13.588Z,100.00
2023-05-05T08:42:32.906Z,100.00
2023-05-05T08:45:40.620Z,100.00
2023-05-05T08:48:43.697Z,100.00
2023-05-05T08:51:46.837Z,100.00
2023-05-05T08:54:54.790Z,100.00
2023-05-05T08:58:01.652Z,100.00
2023-05-05T09:01:03.802Z,100.00
2023-05-05T09:04:05.813Z,100.00
2023-05-05T09:07:08.441Z,100.00
2023-05-05T09:10:11.889Z,100.00
2023-05-05T09:13:16.420Z,100.00
2023-05-05T09:16:18.459Z,100.00
2023-05-05T09:19:20.302Z,100.00
2023-05-05T09:22:33.405Z,100.00
2023-05-05T09:25:35.175Z,100.00
2023-05-05T09:28:38.836Z,100.00
2023-05-05T09:31:40.591Z,100.00
2023-05-05T09:34:43.694Z,100.00
2023-05-05T09:37:45.872Z,100.00
2023-05-05T09:40:49.013Z,100.00
2023-05-05T09:43:52.598Z,100.00
2023-05-05T09:46:54.757Z,100.00
2023-05-05T09:49:57.560Z,100.00
2023-05-05T09:53:01.263Z,100.00
2023-05-05T09:56:03.413Z,100.00
2023-05-05T09:59:12.170Z,100.00
2023-05-05T10:02:14.702Z,100.00
2023-05-05T10:05:18.304Z,100.00
2023-05-05T10:08:21.996Z,100.00
2023-05-05T10:11:25.400Z,100.00
2023-05-05T10:14:31.964Z,100.00
2023-05-05T10:18:02.758Z,100.00
2023-05-05T10:21:09.947Z,100.00
2023-05-05T10:24:16.950Z,100.00
2023-05-05T10:27:22.223Z,100.00
2023-05-05T10:30:29.550Z,100.00
2023-05-05T10:33:47.972Z,100.00
2023-05-05T10:36:51.190Z,100.00
2023-05-05T10:39:54.905Z,100.00
2023-05-05T10:42:58.232Z,100.00
2023-05-05T10:46:01.960Z,100.00
2023-05-05T10:49:13.356Z,100.00
2023-05-05T10:52:27.401Z,100.00
2023-05-05T10:55:39.802Z,100.00
2023-05-05T10:58:58.216Z,100.00
2023-05-05T11:02:18.404Z,100.00
2023-05-05T11:05:21.242Z,100.00
2023-05-05T11:08:29.399Z,100.00
2023-05-05T11:12:01.594Z,100.00
2023-05-05T11:15:37.269Z,100.00
2023-05-05T11:18:41.308Z,100.00
2023-05-05T11:22:00.584Z,100.00
2023-05-05T11:25:43.480Z,93.37
2023-05-05T11:28:59.526Z,100.00
2023-05-05T11:32:11.424Z,94.51
2023-05-05T11:35:14.872Z,96.07
2023-05-05T11:38:19.662Z,100.00
2023-05-05T11:41:44.980Z,100.00
2023-05-05T11:44:47.287Z,100.00
2023-05-05T11:47:49.161Z,92.87
2023-05-05T11:50:53.542Z,97.79
2023-05-05T11:53:59.148Z,99.09
2023-05-05T11:57:02.350Z,100.00
2023-05-05T12:00:06.705Z,100.00
2023-05-05T12:03:09.424Z,100.00
2023-05-05T12:06:13.418Z,100.00
2023-05-05T12:09:15.805Z,100.00
2023-05-05T12:12:17.893Z,100.00
2023-05-05T12:15:28.608Z,92.95
2023-05-05T12:18:31.642Z,97.83
2023-05-05T12:21:35.426Z,94.80
2023-05-05T12:24:38.124Z,90.39
2023-05-05T12:27:40.163Z,93.50
2023-05-05T12:30:42.218Z,97.21
2023-05-05T12:33:47.956Z,100.00
2023-05-05T12:36:53.780Z,100.00
2023-05-05T12:39:55.566Z,96.68
2023-05-05T12:42:57.259Z,90.15
2023-05-05T12:46:03.847Z,93.13
2023-05-05T12:49:07.130Z,91.93
2023-05-05T12:52:12.922Z,100.00
2023-05-05T12:55:14.714Z,95.54
2023-05-05T12:58:19.320Z,91.15
2023-05-05T13:01:23.299Z,90.62
2023-05-05T13:04:28.728Z,90.44
2023-05-05T13:07:32.601Z,82.27
2023-05-05T13:10:36.878Z,73.80
2023-05-05T13:13:38.672Z,78.72
2023-05-05T13:16:43.036Z,77.96
2023-05-05T13:19:44.789Z,72.74
2023-05-05T13:22:48.101Z,74.65
2023-05-05T13:25:50.075Z,74.75
2023-05-05T13:28:54.221Z,77.39
2023-05-05T13:31:57.719Z,77.09
2023-05-05T13:34:59.852Z,78.90
2023-05-05T13:38:03.502Z,89.93
2023-05-05T13:41:07.819Z,88.21
2023-05-05T13:44:11.248Z,90.20
2023-05-05T13:47:13.450Z,89.81
2023-05-05T13:50:15.478Z,83.09
2023-05-05T13:53:18.562Z,77.40
2023-05-05T13:56:23.169Z,74.40
2023-05-05T13:59:25.549Z,78.28
2023-05-05T14:02:28.298Z,81.66
2023-05-05T14:05:30.579Z,80.79
2023-05-05T14:08:33.799Z,79.96
2023-05-05T14:11:36.555Z,79.29
2023-05-05T14:14:38.334Z,81.99
2023-05-05T14:17:40.107Z,82.78
2023-05-05T14:20:42.392Z,85.53
2023-05-05T14:23:50.522Z,84.89
2023-05-05T14:26:53.481Z,80.51
2023-05-05T14:29:55.781Z,80.10
2023-05-05T14:32:58.264Z,77.30
2023-05-05T14:36:00.063Z,72.77
2023-05-05T14:39:04.693Z,80.04
2023-05-05T14:42:06.526Z,81.42
2023-05-05T14:45:09.425Z,74.49
2023-05-05T14:48:11.581Z,73.06
2023-05-05T14:51:15.151Z,78.07
2023-05-05T14:54:27.777Z,77.80
2023-05-05T14:57:30.971Z,80.08
2023-05-05T15:03:36.397Z,84.15
2023-05-05T15:06:40.784Z,80.44
2023-05-05T15:09:45.309Z,77.77
2023-05-05T15:12:48.115Z,71.77
2023-05-05T15:15:49.979Z,74.86
2023-05-05T15:18:52.198Z,73.25
2023-05-05T15:21:53.962Z,70.92
2023-05-05T15:25:00.895Z,69.81
2023-05-05T15:28:05.182Z,73.84
2023-05-05T15:31:07.296Z,71.37
2023-05-05T15:34:09.493Z,71.47
2023-05-05T15:37:13.835Z,71.33
2023-05-05T15:40:17.457Z,72.53
2023-05-05T15:43:21.452Z,71.64
2023-05-05T15:46:25.799Z,74.51
2023-05-05T15:49:28.737Z,73.74
2023-05-05T15:52:30.975Z,75.92
2023-05-05T15:55:34.095Z,75.62
2023-05-05T15:58:35.736Z,76.56
2023-05-05T16:01:40.886Z,75.12
2023-05-05T16:04:44.075Z,73.63
2023-05-05T16:07:46.156Z,72.99
2023-05-05T16:10:50.164Z,72.49
2023-05-05T16:13:52.197Z,70.57
2023-05-05T16:16:54.147Z,73.14
2023-05-05T16:19:57.041Z,72.38
2023-05-05T16:22:59.177Z,69.83
2023-05-05T16:26:02.311Z,71.21
2023-05-05T16:29:04.509Z,72.83
2023-05-05T16:32:06.521Z,72.05
2023-05-05T16:35:08.946Z,74.60
2023-05-05T16:38:10.815Z,74.19
2023-05-05T16:41:14.724Z,73.23
2023-05-05T16:44:16.702Z,74.30
2023-05-05T16:47:18.408Z,74.49
2023-05-05T16:50:20.345Z,74.64
2023-05-05T16:53:23.069Z,72.30
2023-05-05T16:56:35.526Z,72.29
2023-05-05T16:59:37.907Z,72.70
2023-05-05T17:02:42.459Z,73.12
2023-05-05T17:05:44.772Z,74.37
2023-05-05T17:08:48.849Z,75.22
2023-05-05T17:11:52.339Z,76.15
2023-05-05T17:14:54.315Z,79.29
2023-05-05T17:17:56.097Z,79.22
2023-05-05T17:21:00.508Z,78.34
2023-05-05T17:24:02.225Z,77.99
2023-05-05T17:27:08.975Z,80.65
2023-05-05T17:30:11.472Z,81.22
2023-05-05T17:33:13.256Z,79.56
2023-05-05T17:36:15.256Z,75.35
2023-05-05T17:39:18.353Z,74.04
2023-05-05T17:42:24.033Z,76.98
2023-05-05T17:45:25.839Z,77.83
2023-05-05T17:48:30.391Z,74.80
2023-05-05T17:51:32.215Z,74.08
2023-05-05T17:54:34.646Z,78.16
2023-05-05T17:57:39.837Z,76.88
2023-05-05T18:00:41.894Z,79.00
2023-05-05T18:03:44.436Z,79.79
2023-05-05T18:06:49.159Z,80.94
2023-05-05T18:09:51.794Z,82.49
2023-05-05T18:12:59.177Z,82.33
2023-05-05T18:16:04.080Z,81.58
2023-05-05T18:19:09.449Z,81.43
2023-05-05T18:22:11.956Z,82.13
2023-05-05T18:25:15.724Z,82.60
2023-05-05T18:28:22.112Z,82.86
2023-05-05T18:31:24.361Z,81.69
2023-05-05T18:34:27.331Z,82.06
2023-05-05T18:37:33.218Z,82.61
2023-05-05T18:40:40.963Z,80.83
2023-05-05T18:43:53.340Z,80.87
2023-05-05T18:46:59.251Z,83.58
2023-05-05T18:50:01.985Z,80.43
2023-05-05T18:53:07.351Z,81.38
2023-05-05T18:56:11.029Z,85.54
2023-05-05T18:59:18.274Z,80.98
2023-05-05T19:02:20.683Z,80.20
2023-05-05T19:05:23.999Z,77.52
2023-05-05T19:08:31.508Z,78.55
2023-05-05T19:11:35.987Z,78.63
2023-05-05T19:14:42.417Z,83.66
2023-05-05T19:17:45.633Z,81.46
2023-05-05T19:20:49.164Z,83.04
2023-05-05T19:23:53.698Z,80.40
2023-05-05T19:26:57.520Z,84.82
2023-05-05T19:30:01.481Z,77.92
2023-05-05T19:33:04.655Z,77.41
2023-05-05T19:36:08.584Z,73.76
2023-05-05T19:39:15.739Z,73.98
2023-05-05T19:42:22.383Z,74.99
2023-05-05T19:45:35.080Z,82.94
2023-05-05T19:48:38.298Z,80.57
2023-05-05T19:51:45.381Z,86.21
2023-05-05T19:54:51.405Z,89.89
2023-05-05T19:57:57.287Z,88.45
2023-05-05T20:01:05.134Z,95.11
2023-05-05T20:04:10.204Z,95.58
2023-05-05T20:07:12.638Z,95.71
2023-05-05T20:10:16.845Z,98.58
2023-05-05T20:13:19.961Z,97.04
2023-05-05T20:16:24.763Z,100.00
2023-05-05T20:19:30.189Z,92.57
2023-05-05T20:22:32.567Z,98.38
2023-05-05T20:25:35.316Z,100.00
2023-05-05T20:28:41.802Z,100.00
2023-05-05T20:31:47.193Z,100.00
2023-05-05T20:34:52.310Z,100.00
2023-05-05T20:37:56.003Z,100.00
2023-05-05T20:40:58.446Z,100.00
2023-05-05T20:44:00.338Z,100.00
2023-05-05T20:47:09.690Z,100.00
2023-05-05T20:50:12.337Z,100.00
2023-05-05T20:53:16.681Z,100.00
2023-05-05T20:56:18.508Z,100.00
2023-05-05T20:59:20.452Z,100.00
2023-05-05T21:02:23.852Z,100.00
2023-05-05T21:05:28.161Z,100.00
2023-05-05T21:08:30.095Z,100.00
2023-05-05T21:11:31.848Z,100.00
2023-05-05T21:14:33.507Z,100.00
2023-05-05T21:17:45.033Z,100.00
2023-05-05T21:20:48.145Z,100.00
2023-05-05T21:23:49.984Z,100.00
2023-05-05T21:26:59.531Z,100.00
2023-05-05T21:30:05.212Z,100.00
2023-05-05T21:33:08.507Z,100.00
2023-05-05T21:36:10.284Z,100.00
2023-05-05T21:39:12.666Z,100.00
2023-05-05T21:42:16.428Z,100.00
2023-05-05T21:45:20.386Z,100.00
2023-05-05T21:48:26.621Z,100.00
2023-05-05T21:51:28.366Z,100.00
2023-05-05T21:54:31.476Z,100.00
2023-05-05T21:57:33.467Z,100.00
2023-05-05T22:00:35.673Z,100.00
2023-05-05T22:03:40.731Z,100.00
2023-05-05T22:06:44.105Z,100.00
2023-05-05T22:09:45.806Z,100.00
2023-05-05T22:12:47.680Z,100.00
2023-05-05T22:15:52.964Z,100.00
2023-05-05T22:18:57.682Z,100.00
2023-05-05T22:21:59.380Z,100.00
2023-05-05T22:25:03.371Z,100.00
2023-05-05T22:28:05.060Z,100.00
2023-05-05T22:31:06.934Z,100.00
2023-05-05T22:34:10.437Z,100.00
2023-05-05T22:37:12.258Z,100.00
2023-05-05T22:40:14.349Z,100.00
2023-05-05T22:43:18.233Z,100.00
2023-05-05T22:46:20.339Z,100.00
2023-05-05T22:49:23.422Z,100.00
2023-05-05T22:52:25.683Z,100.00
2023-05-05T22:55:28.706Z,100.00
2023-05-05T22:58:30.739Z,100.00
2023-05-05T23:01:34.993Z,100.00
2023-05-05T23:04:38.126Z,100.00
2023-05-05T23:07:40.540Z,100.00
2023-05-05T23:10:42.281Z,100.00
2023-05-05T23:13:45.558Z,100.00
2023-05-05T23:16:47.838Z,100.00
2023-05-05T23:19:50.937Z,100.00
2023-05-05T23:22:52.832Z,100.00
2023-05-05T23:25:57.056Z,100.00
2023-05-05T23:28:59.093Z,100.00
2023-05-05T23:32:00.871Z,100.00
2023-05-05T23:35:06.046Z,100.00
2023-05-05T23:38:09.559Z,100.00
2023-05-05T23:41:11.512Z,100.00
2023-05-05T23:44:13.359Z,100.00
2023-05-05T23:47:17.610Z,100.00
2023-05-05T23:50:21.134Z,100.00
2023-05-05T23:53:23.204Z,100.00
2023-05-05T23:56:25.287Z,100.00
2023-05-05T23:59:27.846Z,100.00
